sensor_id;sensor_type;location;lat;lon;timestamp;pressure;altitude;pressure_sealevel;temperature;humidity
61384;BME280;63511;49.346;8.798;2022-11-20T00:00:45;99778.66;;;7.57;77.12
61384;BME280;63511;49.346;8.798;2022-11-20T00:03:11;99778.75;;;7.71;77.05
61384;BME280;63511;49.346;8.798;2022-11-20T00:05:37;99769.22;;;7.78;77.34
61384;BME280;63511;49.346;8.798;2022-11-20T00:08:02;99761.81;;;7.80;76.87
61384;BME280;63511;49.346;8.798;2022-11-20T00:10:27;99762.88;;;7.83;76.88
61384;BME280;63511;49.346;8.798;2022-11-20T00:12:53;99765.91;;;7.91;76.25
61384;BME280;63511;49.346;8.798;2022-11-20T00:15:18;99771.81;;;7.91;76.36
61384;BME280;63511;49.346;8.798;2022-11-20T00:17:43;99773.66;;;7.94;76.10
61384;BME280;63511;49.346;8.798;2022-11-20T00:20:09;99761.78;;;7.91;76.57
61384;BME280;63511;49.346;8.798;2022-11-20T00:22:35;99758.09;;;7.75;76.67
61384;BME280;63511;49.346;8.798;2022-11-20T00:25:00;99765.50;;;7.85;76.54
61384;BME280;63511;49.346;8.798;2022-11-20T00:27:25;99768.13;;;7.86;77.48
61384;BME280;63511;49.346;8.798;2022-11-20T00:29:53;99776.53;;;7.87;76.48
61384;BME280;63511;49.346;8.798;2022-11-20T00:32:19;99771.84;;;7.80;76.56
61384;BME280;63511;49.346;8.798;2022-11-20T00:34:46;99777.22;;;7.73;75.31
61384;BME280;63511;49.346;8.798;2022-11-20T00:37:11;99776.97;;;7.33;75.40
61384;BME280;63511;49.346;8.798;2022-11-20T00:39:39;99777.91;;;7.47;77.18
61384;BME280;63511;49.346;8.798;2022-11-20T00:42:07;99777.16;;;7.59;76.59
61384;BME280;63511;49.346;8.798;2022-11-20T00:44:35;99773.34;;;7.41;76.16
61384;BME280;63511;49.346;8.798;2022-11-20T00:47:00;99773.25;;;7.40;76.79
61384;BME280;63511;49.346;8.798;2022-11-20T00:49:25;99777.72;;;7.32;75.32
61384;BME280;63511;49.346;8.798;2022-11-20T00:51:50;99784.28;;;7.30;74.86
61384;BME280;63511;49.346;8.798;2022-11-20T00:54:16;99778.03;;;7.48;76.09
61384;BME280;63511;49.346;8.798;2022-11-20T00:56:41;99771.03;;;7.56;77.45
61384;BME280;63511;49.346;8.798;2022-11-20T00:59:08;99780.66;;;7.61;76.86
61384;BME280;63511;49.346;8.798;2022-11-20T01:01:36;99788.19;;;7.61;76.26
61384;BME280;63511;49.346;8.798;2022-11-20T01:04:01;99786.56;;;7.50;75.77
61384;BME280;63511;49.346;8.798;2022-11-20T01:06:37;99775.84;;;7.53;76.96
61384;BME280;63511;49.346;8.798;2022-11-20T01:09:09;99774.50;;;7.69;76.74
61384;BME280;63511;49.346;8.798;2022-11-20T01:11:39;99776.44;;;7.74;76.69
61384;BME280;63511;49.346;8.798;2022-11-20T01:14:07;99778.97;;;7.74;76.37
61384;BME280;63511;49.346;8.798;2022-11-20T01:16:36;99777.00;;;7.69;77.21
61384;BME280;63511;49.346;8.798;2022-11-20T01:19:07;99770.59;;;7.61;77.53
61384;BME280;63511;49.346;8.798;2022-11-20T01:21:38;99766.84;;;7.68;76.98
61384;BME280;63511;49.346;8.798;2022-11-20T01:24:05;99763.47;;;7.67;77.09
61384;BME280;63511;49.346;8.798;2022-11-20T01:26:32;99753.72;;;7.72;76.95
61384;BME280;63511;49.346;8.798;2022-11-20T01:28:58;99765.56;;;7.61;75.73
61384;BME280;63511;49.346;8.798;2022-11-20T01:31:31;99777.47;;;7.64;76.08
61384;BME280;63511;49.346;8.798;2022-11-20T01:34:00;99770.03;;;7.65;76.28
61384;BME280;63511;49.346;8.798;2022-11-20T01:36:28;99769.59;;;7.71;76.89
61384;BME280;63511;49.346;8.798;2022-11-20T01:38:55;99766.81;;;7.80;76.47
61384;BME280;63511;49.346;8.798;2022-11-20T01:41:22;99772.16;;;7.84;76.46
61384;BME280;63511;49.346;8.798;2022-11-20T01:44:06;99770.53;;;7.85;76.59
61384;BME280;63511;49.346;8.798;2022-11-20T01:46:33;99763.66;;;7.82;76.39
61384;BME280;63511;49.346;8.798;2022-11-20T01:49:08;99766.97;;;7.58;76.60
61384;BME280;63511;49.346;8.798;2022-11-20T01:51:39;99763.78;;;7.72;77.00
61384;BME280;63511;49.346;8.798;2022-11-20T01:54:10;99761.03;;;7.81;77.09
61384;BME280;63511;49.346;8.798;2022-11-20T01:56:40;99768.78;;;7.84;77.19
61384;BME280;63511;49.346;8.798;2022-11-20T01:59:08;99773.63;;;7.69;77.95
61384;BME280;63511;49.346;8.798;2022-11-20T02:01:35;99765.63;;;7.75;77.09
61384;BME280;63511;49.346;8.798;2022-11-20T02:04:04;99766.50;;;7.75;77.31
61384;BME280;63511;49.346;8.798;2022-11-20T02:06:34;99762.25;;;7.74;76.83
61384;BME280;63511;49.346;8.798;2022-11-20T02:09:00;99754.16;;;7.78;76.95
61384;BME280;63511;49.346;8.798;2022-11-20T02:11:26;99757.09;;;7.84;77.06
61384;BME280;63511;49.346;8.798;2022-11-20T02:13:53;99771.56;;;7.63;76.50
61384;BME280;63511;49.346;8.798;2022-11-20T02:16:24;99769.50;;;7.58;76.86
61384;BME280;63511;49.346;8.798;2022-11-20T02:18:53;99765.34;;;7.58;76.32
61384;BME280;63511;49.346;8.798;2022-11-20T02:24:17;99751.19;;;7.72;76.14
61384;BME280;63511;49.346;8.798;2022-11-20T02:27:02;99761.66;;;7.42;76.80
61384;BME280;63511;49.346;8.798;2022-11-20T02:29:39;99758.50;;;7.44;76.55
61384;BME280;63511;49.346;8.798;2022-11-20T02:34:53;99754.44;;;7.46;76.28
61384;BME280;63511;49.346;8.798;2022-11-20T02:37:19;99753.53;;;7.57;77.12
61384;BME280;63511;49.346;8.798;2022-11-20T02:39:46;99743.91;;;7.75;76.16
61384;BME280;63511;49.346;8.798;2022-11-20T02:42:12;99744.78;;;7.64;76.23
61384;BME280;63511;49.346;8.798;2022-11-20T02:44:39;99738.56;;;7.71;77.56
61384;BME280;63511;49.346;8.798;2022-11-20T02:47:05;99746.69;;;7.43;76.26
61384;BME280;63511;49.346;8.798;2022-11-20T02:49:30;99739.72;;;7.39;77.23
61384;BME280;63511;49.346;8.798;2022-11-20T02:51:56;99737.09;;;7.38;76.63
61384;BME280;63511;49.346;8.798;2022-11-20T02:54:24;99734.81;;;7.41;76.89
61384;BME280;63511;49.346;8.798;2022-11-20T02:56:52;99728.91;;;7.40;76.69
61384;BME280;63511;49.346;8.798;2022-11-20T02:59:20;99739.63;;;7.26;77.42
61384;BME280;63511;49.346;8.798;2022-11-20T03:01:47;99737.63;;;7.45;77.86
61384;BME280;63511;49.346;8.798;2022-11-20T03:04:13;99738.84;;;7.50;77.65
61384;BME280;63511;49.346;8.798;2022-11-20T03:06:38;99732.69;;;7.58;77.85
61384;BME280;63511;49.346;8.798;2022-11-20T03:09:03;99727.75;;;7.72;77.31
61384;BME280;63511;49.346;8.798;2022-11-20T03:11:29;99713.13;;;7.66;78.00
61384;BME280;63511;49.346;8.798;2022-11-20T03:13:54;99719.56;;;7.62;77.58
61384;BME280;63511;49.346;8.798;2022-11-20T03:16:23;99717.88;;;7.26;77.31
61384;BME280;63511;49.346;8.798;2022-11-20T03:18:49;99717.63;;;7.47;76.91
61384;BME280;63511;49.346;8.798;2022-11-20T03:21:15;99724.34;;;7.35;77.36
61384;BME280;63511;49.346;8.798;2022-11-20T03:23:40;99720.28;;;7.37;77.31
61384;BME280;63511;49.346;8.798;2022-11-20T03:28:39;99715.81;;;7.21;78.66
61384;BME280;63511;49.346;8.798;2022-11-20T03:31:11;99718.94;;;7.42;78.81
61384;BME280;63511;49.346;8.798;2022-11-20T03:33:37;99718.69;;;7.62;77.99
61384;BME280;63511;49.346;8.798;2022-11-20T03:36:11;99715.25;;;7.73;78.30
61384;BME280;63511;49.346;8.798;2022-11-20T03:38:39;99717.72;;;7.60;78.53
61384;BME280;63511;49.346;8.798;2022-11-20T03:41:10;99719.03;;;7.66;79.35
61384;BME280;63511;49.346;8.798;2022-11-20T03:43:36;99726.41;;;7.40;78.02
61384;BME280;63511;49.346;8.798;2022-11-20T03:46:05;99727.72;;;7.23;79.66
61384;BME280;63511;49.346;8.798;2022-11-20T03:48:31;99719.94;;;7.44;78.78
61384;BME280;63511;49.346;8.798;2022-11-20T03:51:12;99723.03;;;7.28;79.67
61384;BME280;63511;49.346;8.798;2022-11-20T03:53:38;99715.06;;;7.70;78.53
61384;BME280;63511;49.346;8.798;2022-11-20T03:56:07;99713.31;;;7.69;78.64
61384;BME280;63511;49.346;8.798;2022-11-20T03:58:37;99709.06;;;7.68;78.95
61384;BME280;63511;49.346;8.798;2022-11-20T04:01:09;99711.69;;;7.69;78.58
61384;BME280;63511;49.346;8.798;2022-11-20T04:03:35;99715.78;;;7.56;78.14
61384;BME280;63511;49.346;8.798;2022-11-20T04:06:08;99727.03;;;7.49;79.30
61384;BME280;63511;49.346;8.798;2022-11-20T04:08:36;99709.44;;;7.49;79.75
61384;BME280;63511;49.346;8.798;2022-11-20T04:11:17;99710.78;;;7.81;79.08
61384;BME280;63511;49.346;8.798;2022-11-20T04:13:47;99707.00;;;7.62;80.17
61384;BME280;63511;49.346;8.798;2022-11-20T04:22:58;99707.94;;;8.01;79.49
61384;BME280;63511;49.346;8.798;2022-11-20T04:25:25;99711.56;;;7.93;79.47
61384;BME280;63511;49.346;8.798;2022-11-20T04:27:51;99698.53;;;7.98;79.68
61384;BME280;63511;49.346;8.798;2022-11-20T04:30:16;99701.13;;;8.11;79.59
61384;BME280;63511;49.346;8.798;2022-11-20T04:32:44;99704.91;;;7.93;79.83
61384;BME280;63511;49.346;8.798;2022-11-20T04:35:11;99705.31;;;7.75;80.09
61384;BME280;63511;49.346;8.798;2022-11-20T04:37:36;99700.59;;;7.79;79.91
61384;BME280;63511;49.346;8.798;2022-11-20T04:40:05;99697.22;;;8.03;80.37
61384;BME280;63511;49.346;8.798;2022-11-20T04:42:33;99686.91;;;8.12;79.83
61384;BME280;63511;49.346;8.798;2022-11-20T04:44:58;99695.06;;;7.96;80.53
61384;BME280;63511;49.346;8.798;2022-11-20T04:47:23;99687.56;;;8.09;80.95
61384;BME280;63511;49.346;8.798;2022-11-20T04:49:49;99690.03;;;7.96;81.80
61384;BME280;63511;49.346;8.798;2022-11-20T04:52:16;99696.00;;;6.66;92.15
61384;BME280;63511;49.346;8.798;2022-11-20T04:54:42;99697.50;;;6.64;95.55
61384;BME280;63511;49.346;8.798;2022-11-20T04:57:07;99692.91;;;7.05;91.46
61384;BME280;63511;49.346;8.798;2022-11-20T04:59:35;99687.78;;;7.51;90.05
61384;BME280;63511;49.346;8.798;2022-11-20T05:02:02;99691.78;;;7.73;89.38
61384;BME280;63511;49.346;8.798;2022-11-20T05:04:27;99687.53;;;7.96;89.64
61384;BME280;63511;49.346;8.798;2022-11-20T05:06:53;99681.28;;;8.03;88.22
61384;BME280;63511;49.346;8.798;2022-11-20T05:09:18;99681.00;;;8.11;87.51
61384;BME280;63511;49.346;8.798;2022-11-20T05:11:45;99681.13;;;8.26;87.26
61384;BME280;63511;49.346;8.798;2022-11-20T05:14:11;99690.19;;;8.24;86.24
61384;BME280;63511;49.346;8.798;2022-11-20T05:16:38;99681.75;;;8.35;86.82
61384;BME280;63511;49.346;8.798;2022-11-20T05:19:06;99669.97;;;8.47;87.68
61384;BME280;63511;49.346;8.798;2022-11-20T05:21:32;99672.03;;;8.53;87.57
61384;BME280;63511;49.346;8.798;2022-11-20T05:23:57;99677.25;;;8.69;87.36
61384;BME280;63511;49.346;8.798;2022-11-20T05:26:22;99662.44;;;8.74;87.33
61384;BME280;63511;49.346;8.798;2022-11-20T05:28:51;99665.91;;;8.76;87.93
61384;BME280;63511;49.346;8.798;2022-11-20T05:31:19;99675.81;;;8.86;88.04
61384;BME280;63511;49.346;8.798;2022-11-20T05:33:44;99673.88;;;8.95;87.47
61384;BME280;63511;49.346;8.798;2022-11-20T05:36:12;99673.38;;;8.74;88.30
61384;BME280;63511;49.346;8.798;2022-11-20T05:38:39;99676.19;;;9.05;88.05
61384;BME280;63511;49.346;8.798;2022-11-20T05:43:37;99664.63;;;9.09;87.51
61384;BME280;63511;49.346;8.798;2022-11-20T05:46:04;99671.22;;;9.20;87.28
61384;BME280;63511;49.346;8.798;2022-11-20T05:48:31;99669.25;;;9.29;87.52
61384;BME280;63511;49.346;8.798;2022-11-20T05:51:00;99666.44;;;9.37;87.43
61384;BME280;63511;49.346;8.798;2022-11-20T05:53:26;99664.38;;;9.45;87.34
61384;BME280;63511;49.346;8.798;2022-11-20T05:56:07;99662.13;;;9.50;86.88
61384;BME280;63511;49.346;8.798;2022-11-20T05:58:33;99658.22;;;9.55;86.92
61384;BME280;63511;49.346;8.798;2022-11-20T06:01:17;99661.88;;;9.60;87.09
61384;BME280;63511;49.346;8.798;2022-11-20T06:03:42;99651.84;;;9.74;86.44
61384;BME280;63511;49.346;8.798;2022-11-20T06:06:13;99661.34;;;9.78;87.08
61384;BME280;63511;49.346;8.798;2022-11-20T06:08:39;99657.50;;;9.70;86.03
61384;BME280;63511;49.346;8.798;2022-11-20T06:11:05;99661.75;;;9.71;85.97
61384;BME280;63511;49.346;8.798;2022-11-20T06:13:34;99659.31;;;9.45;87.07
61384;BME280;63511;49.346;8.798;2022-11-20T06:16:02;99665.66;;;9.66;87.78
61384;BME280;63511;49.346;8.798;2022-11-20T06:18:30;99668.78;;;9.62;87.20
61384;BME280;63511;49.346;8.798;2022-11-20T06:21:10;99668.56;;;9.59;87.06
61384;BME280;63511;49.346;8.798;2022-11-20T06:23:36;99671.84;;;9.71;87.28
61384;BME280;63511;49.346;8.798;2022-11-20T06:26:07;99671.31;;;9.62;87.94
61384;BME280;63511;49.346;8.798;2022-11-20T06:28:32;99670.31;;;9.60;88.13
61384;BME280;63511;49.346;8.798;2022-11-20T06:30:58;99671.94;;;9.73;87.77
61384;BME280;63511;49.346;8.798;2022-11-20T06:33:26;99671.09;;;9.59;87.95
61384;BME280;63511;49.346;8.798;2022-11-20T06:36:00;99666.19;;;9.75;87.04
61384;BME280;63511;49.346;8.798;2022-11-20T06:38:26;99666.31;;;9.64;87.35
61384;BME280;63511;49.346;8.798;2022-11-20T06:40:51;99663.03;;;9.37;87.77
61384;BME280;63511;49.346;8.798;2022-11-20T06:43:17;99660.72;;;9.68;87.55
61384;BME280;63511;49.346;8.798;2022-11-20T06:45:42;99661.13;;;9.61;87.90
61384;BME280;63511;49.346;8.798;2022-11-20T06:48:08;99665.25;;;9.73;87.27
61384;BME280;63511;49.346;8.798;2022-11-20T06:50:36;99658.38;;;9.71;86.40
61384;BME280;63511;49.346;8.798;2022-11-20T06:53:03;99653.19;;;9.82;87.09
61384;BME280;63511;49.346;8.798;2022-11-20T06:55:29;99666.22;;;9.90;86.70
61384;BME280;63511;49.346;8.798;2022-11-20T06:57:54;99656.50;;;9.96;86.05
61384;BME280;63511;49.346;8.798;2022-11-20T07:00:20;99651.44;;;9.96;86.09
61384;BME280;63511;49.346;8.798;2022-11-20T07:02:45;99665.66;;;9.66;86.68
61384;BME280;63511;49.346;8.798;2022-11-20T07:05:10;99673.50;;;9.71;86.91
61384;BME280;63511;49.346;8.798;2022-11-20T07:07:35;99667.09;;;9.91;87.61
61384;BME280;63511;49.346;8.798;2022-11-20T07:10:01;99660.53;;;9.79;88.23
61384;BME280;63511;49.346;8.798;2022-11-20T07:12:26;99657.03;;;10.05;87.17
61384;BME280;63511;49.346;8.798;2022-11-20T07:14:51;99668.25;;;10.10;86.72
61384;BME280;63511;49.346;8.798;2022-11-20T07:17:17;99674.75;;;9.92;87.74
61384;BME280;63511;49.346;8.798;2022-11-20T07:19:42;99678.75;;;9.89;87.46
61384;BME280;63511;49.346;8.798;2022-11-20T07:22:08;99677.06;;;9.47;88.06
61384;BME280;63511;49.346;8.798;2022-11-20T07:24:33;99671.47;;;9.93;87.62
61384;BME280;63511;49.346;8.798;2022-11-20T07:26:59;99668.84;;;10.19;86.34
61384;BME280;63511;49.346;8.798;2022-11-20T07:29:24;99672.03;;;10.17;86.48
61384;BME280;63511;49.346;8.798;2022-11-20T07:31:49;99680.53;;;10.04;85.62
61384;BME280;63511;49.346;8.798;2022-11-20T07:34:15;99682.53;;;10.10;86.41
61384;BME280;63511;49.346;8.798;2022-11-20T07:36:42;99677.75;;;10.00;85.51
61384;BME280;63511;49.346;8.798;2022-11-20T07:39:08;99676.47;;;10.21;86.19
61384;BME280;63511;49.346;8.798;2022-11-20T07:41:33;99674.47;;;10.15;86.48
61384;BME280;63511;49.346;8.798;2022-11-20T07:43:58;99674.91;;;9.80;86.89
61384;BME280;63511;49.346;8.798;2022-11-20T07:46:23;99671.00;;;10.28;86.09
61384;BME280;63511;49.346;8.798;2022-11-20T07:48:49;99677.81;;;10.44;84.93
61384;BME280;63511;49.346;8.798;2022-11-20T07:51:14;99671.81;;;10.56;84.04
61384;BME280;63511;49.346;8.798;2022-11-20T07:53:39;99675.28;;;10.58;85.14
61384;BME280;63511;49.346;8.798;2022-11-20T07:56:05;99677.91;;;10.45;84.67
61384;BME280;63511;49.346;8.798;2022-11-20T07:58:33;99675.28;;;10.44;84.67
61384;BME280;63511;49.346;8.798;2022-11-20T08:01:06;99684.13;;;10.52;85.36
61384;BME280;63511;49.346;8.798;2022-11-20T08:03:32;99677.88;;;10.60;85.08
61384;BME280;63511;49.346;8.798;2022-11-20T08:06:01;99678.94;;;10.06;86.04
61384;BME280;63511;49.346;8.798;2022-11-20T08:08:29;99683.47;;;10.40;85.28
61384;BME280;63511;49.346;8.798;2022-11-20T08:10:57;99685.47;;;10.31;85.26
61384;BME280;63511;49.346;8.798;2022-11-20T08:13:42;99695.97;;;10.23;86.61
61384;BME280;63511;49.346;8.798;2022-11-20T08:16:29;99694.06;;;10.49;85.97
61384;BME280;63511;49.346;8.798;2022-11-20T08:18:57;99689.03;;;10.49;86.09
61384;BME280;63511;49.346;8.798;2022-11-20T08:21:22;99694.69;;;10.45;86.09
61384;BME280;63511;49.346;8.798;2022-11-20T08:23:47;99699.56;;;10.42;86.53
61384;BME280;63511;49.346;8.798;2022-11-20T08:26:13;99705.41;;;10.41;86.26
61384;BME280;63511;49.346;8.798;2022-11-20T08:28:38;99693.09;;;10.32;86.33
61384;BME280;63511;49.346;8.798;2022-11-20T08:31:04;99693.91;;;10.60;85.87
61384;BME280;63511;49.346;8.798;2022-11-20T08:33:35;99695.28;;;10.70;84.57
61384;BME280;63511;49.346;8.798;2022-11-20T08:36:04;99698.81;;;11.03;84.73
61384;BME280;63511;49.346;8.798;2022-11-20T08:38:30;99704.63;;;10.56;85.74
61384;BME280;63511;49.346;8.798;2022-11-20T08:40:59;99706.19;;;10.54;86.44
61384;BME280;63511;49.346;8.798;2022-11-20T08:43:43;99698.41;;;10.81;84.95
61384;BME280;63511;49.346;8.798;2022-11-20T08:46:11;99698.44;;;11.12;84.47
61384;BME280;63511;49.346;8.798;2022-11-20T08:48:36;99712.44;;;10.76;84.47
61384;BME280;63511;49.346;8.798;2022-11-20T08:51:02;99714.63;;;10.55;86.21
61384;BME280;63511;49.346;8.798;2022-11-20T08:53:27;99727.25;;;10.70;85.67
61384;BME280;63511;49.346;8.798;2022-11-20T08:55:52;99724.78;;;10.86;85.42
61384;BME280;63511;49.346;8.798;2022-11-20T08:58:18;99720.16;;;10.93;84.99
61384;BME280;63511;49.346;8.798;2022-11-20T09:00:43;99717.94;;;11.14;83.97
61384;BME280;63511;49.346;8.798;2022-11-20T09:03:10;99715.91;;;10.92;85.41
61384;BME280;63511;49.346;8.798;2022-11-20T09:05:38;99723.28;;;11.19;83.73
61384;BME280;63511;49.346;8.798;2022-11-20T09:08:06;99725.16;;;10.77;84.78
61384;BME280;63511;49.346;8.798;2022-11-20T09:10:31;99718.69;;;10.97;84.16
61384;BME280;63511;49.346;8.798;2022-11-20T09:12:57;99714.84;;;11.03;84.46
61384;BME280;63511;49.346;8.798;2022-11-20T09:15:24;99724.72;;;10.70;84.20
61384;BME280;63511;49.346;8.798;2022-11-20T09:17:52;99721.56;;;11.03;84.16
61384;BME280;63511;49.346;8.798;2022-11-20T09:20:20;99717.97;;;10.99;84.04
61384;BME280;63511;49.346;8.798;2022-11-20T09:22:45;99721.53;;;11.18;83.80
61384;BME280;63511;49.346;8.798;2022-11-20T09:25:13;99722.44;;;11.34;82.89
61384;BME280;63511;49.346;8.798;2022-11-20T09:27:38;99725.91;;;11.36;83.09
61384;BME280;63511;49.346;8.798;2022-11-20T09:30:04;99723.13;;;11.32;82.97
61384;BME280;63511;49.346;8.798;2022-11-20T09:32:30;99722.22;;;11.15;83.55
61384;BME280;63511;49.346;8.798;2022-11-20T09:34:55;99723.72;;;11.42;83.19
61384;BME280;63511;49.346;8.798;2022-11-20T09:37:23;99727.28;;;11.15;84.21
61384;BME280;63511;49.346;8.798;2022-11-20T09:39:48;99718.97;;;11.32;83.58
61384;BME280;63511;49.346;8.798;2022-11-20T09:44:41;99715.56;;;11.32;83.28
61384;BME280;63511;49.346;8.798;2022-11-20T09:50:23;99720.91;;;11.69;82.86
61384;BME280;63511;49.346;8.798;2022-11-20T09:55:50;99725.06;;;11.83;81.37
61384;BME280;63511;49.346;8.798;2022-11-20T10:00:47;99732.31;;;11.46;82.36
61384;BME280;63511;49.346;8.798;2022-11-20T10:03:17;99733.31;;;11.02;84.40
61384;BME280;63511;49.346;8.798;2022-11-20T10:05:52;99728.09;;;11.30;82.75
61384;BME280;63511;49.346;8.798;2022-11-20T10:08:28;99731.63;;;11.48;81.96
61384;BME280;63511;49.346;8.798;2022-11-20T10:24:43;99727.28;;;11.46;83.50
61384;BME280;63511;49.346;8.798;2022-11-20T10:30:14;99722.72;;;11.55;82.59
61384;BME280;63511;49.346;8.798;2022-11-20T10:32:47;99721.09;;;11.41;82.17
61384;BME280;63511;49.346;8.798;2022-11-20T10:38:01;99713.59;;;12.22;80.50
61384;BME280;63511;49.346;8.798;2022-11-20T10:40:46;99712.63;;;12.20;80.53
61384;BME280;63511;49.346;8.798;2022-11-20T10:43:18;99707.50;;;12.18;79.98
61384;BME280;63511;49.346;8.798;2022-11-20T10:46:03;99703.59;;;12.25;80.10
61384;BME280;63511;49.346;8.798;2022-11-20T10:48:31;99703.13;;;12.32;80.15
61384;BME280;63511;49.346;8.798;2022-11-20T10:51:26;99700.00;;;12.04;80.31
61384;BME280;63511;49.346;8.798;2022-11-20T11:01:56;99693.16;;;12.19;80.08
61384;BME280;63511;49.346;8.798;2022-11-20T11:04:41;99694.69;;;11.99;80.54
61384;BME280;63511;49.346;8.798;2022-11-20T11:07:15;99697.97;;;11.97;80.03
61384;BME280;63511;49.346;8.798;2022-11-20T11:09:48;99696.03;;;11.92;80.57
61384;BME280;63511;49.346;8.798;2022-11-20T11:12:14;99694.06;;;11.71;80.91
61384;BME280;63511;49.346;8.798;2022-11-20T11:14:47;99692.56;;;12.07;80.77
61384;BME280;63511;49.346;8.798;2022-11-20T11:17:25;99688.25;;;12.38;78.83
61384;BME280;63511;49.346;8.798;2022-11-20T11:20:18;99682.00;;;12.31;78.36
61384;BME280;63511;49.346;8.798;2022-11-20T11:22:47;99673.44;;;12.29;79.47
61384;BME280;63511;49.346;8.798;2022-11-20T11:25:39;99662.97;;;12.40;78.85
61384;BME280;63511;49.346;8.798;2022-11-20T11:30:45;99661.41;;;12.59;79.05
61384;BME280;63511;49.346;8.798;2022-11-20T11:33:18;99654.53;;;12.92;78.36
61384;BME280;63511;49.346;8.798;2022-11-20T11:35:55;99658.72;;;13.27;78.14
61384;BME280;63511;49.346;8.798;2022-11-20T11:38:39;99660.94;;;12.84;77.25
61384;BME280;63511;49.346;8.798;2022-11-20T11:41:09;99662.22;;;12.58;78.10
61384;BME280;63511;49.346;8.798;2022-11-20T11:43:48;99647.72;;;12.91;76.64
61384;BME280;63511;49.346;8.798;2022-11-20T11:46:34;99645.66;;;12.83;77.60
61384;BME280;63511;49.346;8.798;2022-11-20T11:51:33;99645.16;;;12.90;76.60
61384;BME280;63511;49.346;8.798;2022-11-20T11:54:00;99644.78;;;12.47;77.64
61384;BME280;63511;49.346;8.798;2022-11-20T11:56:32;99646.22;;;12.59;77.00
61384;BME280;63511;49.346;8.798;2022-11-20T11:59:02;99647.44;;;13.03;76.82
61384;BME280;63511;49.346;8.798;2022-11-20T12:01:43;99633.56;;;12.77;77.18
61384;BME280;63511;49.346;8.798;2022-11-20T12:04:22;99647.09;;;12.60;77.03
61384;BME280;63511;49.346;8.798;2022-11-20T12:07:11;99642.91;;;12.43;77.35
61384;BME280;63511;49.346;8.798;2022-11-20T12:09:46;99634.34;;;12.76;76.86
61384;BME280;63511;49.346;8.798;2022-11-20T12:12:19;99628.66;;;12.62;77.26
61384;BME280;63511;49.346;8.798;2022-11-20T12:14:47;99636.31;;;12.64;76.23
61384;BME280;63511;49.346;8.798;2022-11-20T12:17:15;99635.50;;;12.83;75.50
61384;BME280;63511;49.346;8.798;2022-11-20T12:19:41;99637.31;;;12.32;75.63
61384;BME280;63511;49.346;8.798;2022-11-20T12:22:23;99634.59;;;12.29;77.46
61384;BME280;63511;49.346;8.798;2022-11-20T12:25:35;99629.50;;;12.45;75.12
61384;BME280;63511;49.346;8.798;2022-11-20T12:30:32;99626.16;;;12.82;72.14
61384;BME280;63511;49.346;8.798;2022-11-20T12:35:52;99618.84;;;12.70;70.52
61384;BME280;63511;49.346;8.798;2022-11-20T13:07:30;99622.72;;;12.62;67.01
61384;BME280;63511;49.346;8.798;2022-11-20T13:09:56;99621.00;;;12.98;66.05
61384;BME280;63511;49.346;8.798;2022-11-20T13:12:30;99621.31;;;13.04;66.66
61384;BME280;63511;49.346;8.798;2022-11-20T13:15:33;99610.28;;;13.03;66.08
61384;BME280;63511;49.346;8.798;2022-11-20T13:18:06;99609.94;;;13.33;65.62
61384;BME280;63511;49.346;8.798;2022-11-20T13:20:38;99604.47;;;12.69;65.45
61384;BME280;63511;49.346;8.798;2022-11-20T13:23:08;99598.44;;;12.49;66.96
61384;BME280;63511;49.346;8.798;2022-11-20T13:25:38;99592.44;;;13.00;66.34
61384;BME280;63511;49.346;8.798;2022-11-20T13:28:28;99591.34;;;12.77;66.13
61384;BME280;63511;49.346;8.798;2022-11-20T13:30:55;99594.09;;;12.64;67.74
61384;BME280;63511;49.346;8.798;2022-11-20T13:33:38;99591.16;;;12.73;66.03
61384;BME280;63511;49.346;8.798;2022-11-20T13:36:19;99591.06;;;12.89;67.16
61384;BME280;63511;49.346;8.798;2022-11-20T13:38:50;99575.53;;;12.46;67.11
61384;BME280;63511;49.346;8.798;2022-11-20T13:44:27;99579.44;;;13.12;64.07
61384;BME280;63511;49.346;8.798;2022-11-20T13:46:53;99581.03;;;12.73;62.89
61384;BME280;63511;49.346;8.798;2022-11-20T13:55:36;99583.47;;;12.71;60.74
61384;BME280;63511;49.346;8.798;2022-11-20T13:58:33;99576.19;;;12.42;59.28
61384;BME280;63511;49.346;8.798;2022-11-20T14:01:20;99571.41;;;12.48;59.08
61384;BME280;63511;49.346;8.798;2022-11-20T14:03:47;99573.00;;;12.64;58.80
61384;BME280;63511;49.346;8.798;2022-11-20T14:08:47;99567.56;;;12.56;60.94
61384;BME280;63511;49.346;8.798;2022-11-20T14:11:22;99566.84;;;12.41;60.40
61384;BME280;63511;49.346;8.798;2022-11-20T14:13:58;99570.69;;;12.68;60.59
61384;BME280;63511;49.346;8.798;2022-11-20T14:16:29;99569.00;;;13.06;60.46
61384;BME280;63511;49.346;8.798;2022-11-20T14:21:48;99569.59;;;13.18;59.65
61384;BME280;63511;49.346;8.798;2022-11-20T14:24:18;99560.97;;;12.97;59.79
61384;BME280;63511;49.346;8.798;2022-11-20T14:26:44;99565.75;;;13.26;58.59
61384;BME280;63511;49.346;8.798;2022-11-20T14:29:19;99566.53;;;13.25;58.14
61384;BME280;63511;49.346;8.798;2022-11-20T14:31:48;99567.91;;;13.01;57.56
61384;BME280;63511;49.346;8.798;2022-11-20T14:34:28;99567.63;;;13.12;58.50
61384;BME280;63511;49.346;8.798;2022-11-20T14:37:04;99564.53;;;12.46;57.67
61384;BME280;63511;49.346;8.798;2022-11-20T14:39:35;99560.31;;;12.28;58.61
61384;BME280;63511;49.346;8.798;2022-11-20T14:42:01;99561.78;;;12.59;60.11
61384;BME280;63511;49.346;8.798;2022-11-20T14:44:37;99555.47;;;12.68;58.55
61384;BME280;63511;49.346;8.798;2022-11-20T14:47:03;99546.13;;;12.67;59.05
61384;BME280;63511;49.346;8.798;2022-11-20T14:49:30;99550.47;;;12.70;59.64
61384;BME280;63511;49.346;8.798;2022-11-20T14:52:01;99546.81;;;12.46;62.08
61384;BME280;63511;49.346;8.798;2022-11-20T14:54:26;99550.22;;;12.46;62.42
61384;BME280;63511;49.346;8.798;2022-11-20T14:56:58;99544.44;;;12.31;62.01
61384;BME280;63511;49.346;8.798;2022-11-20T14:59:32;99563.72;;;12.11;61.86
61384;BME280;63511;49.346;8.798;2022-11-20T15:02:01;99558.72;;;12.13;61.58
61384;BME280;63511;49.346;8.798;2022-11-20T15:04:26;99555.09;;;12.08;63.35
61384;BME280;63511;49.346;8.798;2022-11-20T15:06:54;99549.81;;;12.03;62.47